MWI042 FWKI-FWCL
Flight info
| Callsign | MWI042 |
|---|---|
| Flight time | 0h 30m |
| Altitude | 21000 |
| Route | DVL DCT TETEM DCT VCL |
| Aircraft | B737/M-SABDE2E3FGHIRWXY/LB2 |
Departure
| Time | 2026-04-21 14:12 |
|---|---|
| Airport | Kamuzu International Airport (FWKI) |
Arrival
| Time | 2026-04-21 14:42 |
|---|---|
| Airport | Chileka International Airport (FWCL) |
| Time | Latitude | Longitude | Altitude | Speed | Heading |
|---|---|---|---|---|---|
| 2026-04-21 13:56 | -13.78159 | 33.77842 | 4030 ft | 0 kts | 130° |
| 2026-04-21 14:07 | -13.78167 | 33.77852 | 4030 ft | 4 kts | 131° |
| 2026-04-21 14:07 | -13.78191 | 33.77870 | 4030 ft | 4 kts | 176° |
| 2026-04-21 14:07 | -13.78233 | 33.77855 | 4030 ft | 9 kts | 211° |
| 2026-04-21 14:07 | -13.78285 | 33.77808 | 4030 ft | 11 kts | 221° |
| 2026-04-21 14:08 | -13.78353 | 33.77757 | 4030 ft | 12 kts | 230° |
| 2026-04-21 14:08 | -13.78319 | 33.77631 | 4029 ft | 24 kts | 310° |
| 2026-04-21 14:08 | -13.78211 | 33.77499 | 4029 ft | 23 kts | 311° |
| 2026-04-21 14:08 | -13.78110 | 33.77376 | 4029 ft | 21 kts | 311° |
| 2026-04-21 14:09 | -13.78022 | 33.77265 | 4029 ft | 19 kts | 307° |
| 2026-04-21 14:09 | -13.77939 | 33.77165 | 4029 ft | 17 kts | 309° |
| 2026-04-21 14:09 | -13.77866 | 33.77075 | 4029 ft | 16 kts | 309° |
| 2026-04-21 14:09 | -13.77819 | 33.76985 | 4030 ft | 14 kts | 268° |
| 2026-04-21 14:10 | -13.77854 | 33.76905 | 4030 ft | 11 kts | 221° |
| 2026-04-21 14:10 | -13.77919 | 33.76876 | 4031 ft | 10 kts | 188° |
| 2026-04-21 14:10 | -13.77958 | 33.76898 | 4030 ft | 6 kts | 130° |
| 2026-04-21 14:10 | -13.77963 | 33.76904 | 4030 ft | 5 kts | 130° |
| 2026-04-21 14:11 | -13.77968 | 33.76910 | 4030 ft | 0 kts | 130° |
| 2026-04-21 14:11 | -13.78034 | 33.76991 | 4029 ft | 51 kts | 130° |
| 2026-04-21 14:12 | -13.78448 | 33.77500 | 4029 ft | 131 kts | 130° |
| 2026-04-21 14:12 | -13.79143 | 33.78348 | 4337 ft | 167 kts | 130° |
| 2026-04-21 14:12 | -13.79927 | 33.79288 | 5155 ft | 177 kts | 129° |
| 2026-04-21 14:12 | -13.80852 | 33.80171 | 5989 ft | 191 kts | 148° |
| 2026-04-21 14:13 | -13.82044 | 33.80834 | 6975 ft | 199 kts | 148° |
| 2026-04-21 14:13 | -13.83308 | 33.81583 | 7638 ft | 221 kts | 148° |
| 2026-04-21 14:13 | -13.84716 | 33.82427 | 8092 ft | 250 kts | 148° |
| 2026-04-21 14:13 | -13.86188 | 33.83309 | 8571 ft | 275 kts | 148° |
| 2026-04-21 14:14 | -13.87913 | 33.84343 | 9503 ft | 289 kts | 148° |
| 2026-04-21 14:14 | -13.89674 | 33.85396 | 10624 ft | 298 kts | 148° |
| 2026-04-21 14:14 | -13.91500 | 33.86488 | 11440 ft | 314 kts | 148° |
| 2026-04-21 14:14 | -13.93418 | 33.87634 | 12392 ft | 322 kts | 148° |
| 2026-04-21 14:15 | -13.95308 | 33.88761 | 13410 ft | 326 kts | 148° |
| 2026-04-21 14:16 | -13.97133 | 33.89848 | 14336 ft | 330 kts | 148° |
| 2026-04-21 14:16 | -13.99138 | 33.91043 | 15299 ft | 336 kts | 148° |
| 2026-04-21 14:17 | -14.01175 | 33.92257 | 16237 ft | 341 kts | 148° |
| 2026-04-21 14:17 | -14.03236 | 33.93484 | 17164 ft | 346 kts | 148° |
| 2026-04-21 14:17 | -14.05329 | 33.94732 | 18048 ft | 351 kts | 148° |
| 2026-04-21 14:17 | -14.07460 | 33.96002 | 18919 ft | 356 kts | 148° |
| 2026-04-21 14:18 | -14.09616 | 33.97288 | 19775 ft | 361 kts | 148° |
| 2026-04-21 14:18 | -14.11813 | 33.98598 | 20571 ft | 367 kts | 148° |
| 2026-04-21 14:18 | -14.14022 | 33.99916 | 20948 ft | 367 kts | 148° |
| 2026-04-21 14:18 | -14.16233 | 34.01235 | 21077 ft | 378 kts | 148° |
| 2026-04-21 14:19 | -14.18566 | 34.02629 | 21088 ft | 387 kts | 148° |
| 2026-04-21 14:19 | -14.20878 | 34.04009 | 21079 ft | 388 kts | 148° |
| 2026-04-21 14:19 | -14.23235 | 34.05415 | 21063 ft | 386 kts | 148° |
| 2026-04-21 14:19 | -14.25534 | 34.06787 | 21081 ft | 385 kts | 148° |
| 2026-04-21 14:20 | -14.27852 | 34.08170 | 21083 ft | 385 kts | 148° |
| 2026-04-21 14:20 | -14.30161 | 34.09550 | 21085 ft | 385 kts | 148° |
| 2026-04-21 14:20 | -14.32488 | 34.10940 | 21081 ft | 385 kts | 148° |
| 2026-04-21 14:20 | -14.34813 | 34.12330 | 21080 ft | 386 kts | 148° |
| 2026-04-21 14:21 | -14.37136 | 34.13719 | 21076 ft | 386 kts | 148° |
| 2026-04-21 14:21 | -14.39454 | 34.15106 | 21090 ft | 386 kts | 148° |
| 2026-04-21 14:21 | -14.41791 | 34.16504 | 21071 ft | 387 kts | 148° |
| 2026-04-21 14:21 | -14.44123 | 34.17900 | 21070 ft | 387 kts | 148° |
| 2026-04-21 14:22 | -14.46417 | 34.19273 | 21087 ft | 387 kts | 148° |
| 2026-04-21 14:22 | -14.48747 | 34.20668 | 21084 ft | 387 kts | 148° |
| 2026-04-21 14:22 | -14.51083 | 34.22066 | 21071 ft | 387 kts | 148° |
| 2026-04-21 14:22 | -14.53420 | 34.23466 | 21085 ft | 387 kts | 148° |
| 2026-04-21 14:23 | -14.55749 | 34.24862 | 21069 ft | 387 kts | 148° |
| 2026-04-21 14:23 | -14.58076 | 34.26256 | 21070 ft | 387 kts | 148° |
| 2026-04-21 14:23 | -14.60404 | 34.27652 | 21085 ft | 386 kts | 148° |
| 2026-04-21 14:23 | -14.62734 | 34.29049 | 21075 ft | 386 kts | 148° |
| 2026-04-21 14:24 | -14.65062 | 34.30446 | 21072 ft | 386 kts | 148° |
| 2026-04-21 14:24 | -14.67390 | 34.31843 | 21081 ft | 386 kts | 148° |
| 2026-04-21 14:24 | -14.69683 | 34.33219 | 21080 ft | 386 kts | 148° |
| 2026-04-21 14:24 | -14.72014 | 34.34589 | 21075 ft | 387 kts | 150° |
| 2026-04-21 14:25 | -14.74450 | 34.35783 | 21084 ft | 387 kts | 154° |
| 2026-04-21 14:25 | -14.76924 | 34.36899 | 21083 ft | 388 kts | 155° |
| 2026-04-21 14:25 | -14.79402 | 34.37987 | 21081 ft | 388 kts | 155° |
| 2026-04-21 14:25 | -14.81890 | 34.39079 | 21078 ft | 388 kts | 155° |
| 2026-04-21 14:26 | -14.84379 | 34.40177 | 21073 ft | 386 kts | 155° |
| 2026-04-21 14:26 | -14.86809 | 34.41257 | 21067 ft | 375 kts | 154° |
| 2026-04-21 14:26 | -14.89169 | 34.42312 | 21065 ft | 371 kts | 154° |
| 2026-04-21 14:26 | -14.91527 | 34.43373 | 21084 ft | 372 kts | 154° |
| 2026-04-21 14:27 | -14.93939 | 34.44461 | 21023 ft | 373 kts | 154° |
| 2026-04-21 14:27 | -14.96299 | 34.45527 | 20592 ft | 375 kts | 154° |
| 2026-04-21 14:27 | -14.98696 | 34.46610 | 20057 ft | 374 kts | 154° |
| 2026-04-21 14:27 | -15.01070 | 34.47682 | 19499 ft | 370 kts | 154° |
| 2026-04-21 14:28 | -15.03415 | 34.48742 | 18934 ft | 366 kts | 154° |
| 2026-04-21 14:28 | -15.05745 | 34.49795 | 18365 ft | 363 kts | 154° |
| 2026-04-21 14:28 | -15.08019 | 34.50822 | 18113 ft | 346 kts | 154° |
| 2026-04-21 14:28 | -15.10149 | 34.51782 | 17961 ft | 323 kts | 154° |
| 2026-04-21 14:29 | -15.12158 | 34.52689 | 17793 ft | 307 kts | 154° |
| 2026-04-21 14:29 | -15.14096 | 34.53566 | 17370 ft | 302 kts | 154° |
| 2026-04-21 14:29 | -15.16020 | 34.54438 | 16835 ft | 302 kts | 154° |
| 2026-04-21 14:29 | -15.17918 | 34.55299 | 16323 ft | 300 kts | 154° |
| 2026-04-21 14:30 | -15.19838 | 34.56169 | 15817 ft | 297 kts | 154° |
| 2026-04-21 14:30 | -15.21707 | 34.57017 | 15333 ft | 295 kts | 154° |
| 2026-04-21 14:30 | -15.23581 | 34.57866 | 14823 ft | 293 kts | 154° |
| 2026-04-21 14:30 | -15.25429 | 34.58704 | 14327 ft | 290 kts | 154° |
| 2026-04-21 14:31 | -15.27284 | 34.59544 | 13833 ft | 288 kts | 154° |
| 2026-04-21 14:31 | -15.29114 | 34.60374 | 13349 ft | 286 kts | 154° |
| 2026-04-21 14:31 | -15.30936 | 34.61200 | 12857 ft | 284 kts | 154° |
| 2026-04-21 14:31 | -15.32732 | 34.62014 | 12370 ft | 282 kts | 154° |
| 2026-04-21 14:32 | -15.34526 | 34.62828 | 11885 ft | 280 kts | 154° |
| 2026-04-21 14:32 | -15.36298 | 34.63631 | 11414 ft | 278 kts | 154° |
| 2026-04-21 14:32 | -15.38059 | 34.64430 | 10954 ft | 275 kts | 154° |
| 2026-04-21 14:32 | -15.39790 | 34.65215 | 10474 ft | 274 kts | 154° |
| 2026-04-21 14:33 | -15.41533 | 34.66006 | 10017 ft | 271 kts | 155° |
| 2026-04-21 14:33 | -15.43244 | 34.66783 | 9616 ft | 266 kts | 154° |
| 2026-04-21 14:33 | -15.44927 | 34.67547 | 9254 ft | 261 kts | 154° |
| 2026-04-21 14:33 | -15.46575 | 34.68295 | 8903 ft | 256 kts | 154° |
| 2026-04-21 14:34 | -15.48194 | 34.69030 | 8546 ft | 252 kts | 154° |
| 2026-04-21 14:34 | -15.49790 | 34.69755 | 8194 ft | 248 kts | 154° |
| 2026-04-21 14:34 | -15.51364 | 34.70471 | 7866 ft | 247 kts | 155° |
| 2026-04-21 14:34 | -15.52956 | 34.71195 | 7537 ft | 253 kts | 155° |
| 2026-04-21 14:35 | -15.54595 | 34.71941 | 7193 ft | 261 kts | 155° |
| 2026-04-21 14:35 | -15.56236 | 34.72687 | 6848 ft | 260 kts | 155° |
| 2026-04-21 14:35 | -15.57890 | 34.73438 | 6801 ft | 258 kts | 155° |
| 2026-04-21 14:35 | -15.59504 | 34.74171 | 6766 ft | 244 kts | 155° |
| 2026-04-21 14:36 | -15.60999 | 34.74850 | 6752 ft | 225 kts | 155° |
| 2026-04-21 14:36 | -15.62372 | 34.75473 | 6752 ft | 208 kts | 154° |
| 2026-04-21 14:36 | -15.63663 | 34.76061 | 6765 ft | 204 kts | 154° |
| 2026-04-21 14:36 | -15.64750 | 34.76871 | 6749 ft | 204 kts | 124° |
| 2026-04-21 14:38 | -15.65184 | 34.77716 | 6635 ft | 204 kts | 112° |
| 2026-04-21 14:38 | -15.65817 | 34.79090 | 6117 ft | 216 kts | 105° |
| 2026-04-21 14:38 | -15.66060 | 34.80640 | 5648 ft | 220 kts | 96° |
| 2026-04-21 14:38 | -15.66238 | 34.82214 | 5185 ft | 220 kts | 96° |
| 2026-04-21 14:39 | -15.66413 | 34.83781 | 4671 ft | 215 kts | 96° |
| 2026-04-21 14:39 | -15.66580 | 34.85258 | 4473 ft | 197 kts | 96° |
| 2026-04-21 14:39 | -15.66729 | 34.86624 | 4231 ft | 183 kts | 96° |
| 2026-04-21 14:39 | -15.66862 | 34.87883 | 4019 ft | 163 kts | 96° |
| 2026-04-21 14:40 | -15.66979 | 34.88982 | 3791 ft | 149 kts | 96° |
| 2026-04-21 14:40 | -15.67090 | 34.90018 | 3599 ft | 140 kts | 96° |
| 2026-04-21 14:40 | -15.67194 | 34.90998 | 3424 ft | 134 kts | 96° |
| 2026-04-21 14:40 | -15.67297 | 34.91964 | 3219 ft | 136 kts | 96° |
| 2026-04-21 14:41 | -15.67379 | 34.92703 | 3067 ft | 135 kts | 97° |
| 2026-04-21 14:41 | -15.67439 | 34.93221 | 2960 ft | 135 kts | 97° |
| 2026-04-21 14:41 | -15.67551 | 34.94182 | 2825 ft | 135 kts | 96° |
| 2026-04-21 14:41 | -15.67656 | 34.95164 | 2656 ft | 137 kts | 96° |
| 2026-04-21 14:42 | -15.67766 | 34.96124 | 2490 ft | 134 kts | 96° |
| 2026-04-21 14:42 | -15.67857 | 34.96977 | 2469 ft | 92 kts | 97° |
| 2026-04-21 14:42 | -15.67905 | 34.97416 | 2466 ft | 30 kts | 96° |
| 2026-04-21 14:42 | -15.67911 | 34.97481 | 2465 ft | 3 kts | 96° |
| 2026-04-21 14:43 | -15.67917 | 34.97532 | 2465 ft | 11 kts | 97° |
| 2026-04-21 14:43 | -15.67930 | 34.97644 | 2465 ft | 20 kts | 97° |
| 2026-04-21 14:43 | -15.67949 | 34.97814 | 2465 ft | 27 kts | 96° |
| 2026-04-21 14:43 | -15.67940 | 34.97974 | 2466 ft | 16 kts | 81° |
| 2026-04-21 14:44 | -15.67963 | 34.97989 | 2469 ft | 1 kts | 232° |
| 2026-04-21 14:44 | -15.67964 | 34.97984 | 2469 ft | 1 kts | 258° |
| 2026-04-21 14:44 | -15.67965 | 34.97971 | 2467 ft | 3 kts | 265° |
| 2026-04-21 14:44 | -15.67963 | 34.97938 | 2466 ft | 6 kts | 276° |
| 2026-04-21 14:45 | -15.67952 | 34.97839 | 2468 ft | 21 kts | 276° |
| 2026-04-21 14:45 | -15.67930 | 34.97648 | 2465 ft | 29 kts | 277° |
| 2026-04-21 14:45 | -15.67916 | 34.97485 | 2465 ft | 17 kts | 259° |
| 2026-04-21 14:45 | -15.67987 | 34.97474 | 2465 ft | 11 kts | 150° |
| 2026-04-21 14:46 | -15.68038 | 34.97515 | 2467 ft | 9 kts | 142° |
| 2026-04-21 14:46 | -15.68082 | 34.97507 | 2465 ft | 6 kts | 247° |
| 2026-04-21 14:46 | -15.68085 | 34.97471 | 2466 ft | 5 kts | 274° |
| 2026-04-21 14:46 | -15.68079 | 34.97412 | 2470 ft | 10 kts | 277° |
| 2026-04-21 14:47 | -15.68072 | 34.97341 | 2469 ft | 9 kts | 261° |
| 2026-04-21 14:47 | -15.68088 | 34.97305 | 2468 ft | 8 kts | 240° |
| 2026-04-21 14:47 | -15.68106 | 34.97260 | 2467 ft | 6 kts | 265° |
| 2026-04-21 14:47 | -15.68103 | 34.97222 | 2467 ft | 2 kts | 277° |
| 2026-04-21 14:48 | -15.68103 | 34.97219 | 2467 ft | 1 kts | 277° |
| 2026-04-21 14:48 | -15.68101 | 34.97199 | 2467 ft | 0 kts | 275° |